Time;durP1;ratioP1;P1;durP2;ratioP2;P2;SDS_P1;SDS_P2;PMS_P1;PMS_P2;Temp;Humidity;BMP_temperature;BMP_pressure;BME280_temperature;BME280_humidity;BME280_pressure;Samples;Min_cycle;Max_cycle;Signal;HPM_P1;HPM_P2
2022/04/09 00:04:13;;;;;;;;;;;;;;;22.98;44.96;98610.66;20742111;27;97504;-76
2022/04/09 00:14:14;;;;;;;;;;;;;;;22.96;45.19;98596.00;20742534;27;99280;-75
2022/04/09 00:24:15;;;;;;;;;;;;;;;22.95;44.91;98579.34;20754544;27;97196;-76
2022/04/09 00:34:15;;;;;;;;;;;;;;;22.92;45.09;98553.28;20743228;27;97433;-76
2022/04/09 00:44:17;;;;;;;;;;;;;;;22.93;45.21;98538.28;20754176;27;96817;-75
2022/04/09 00:54:18;;;;;;;;;;;;;;;22.90;45.26;98542.09;20740749;27;102767;-76
2022/04/09 01:04:19;;;;;;;;;;;;;;;22.87;45.45;98584.66;20724083;27;97743;-74
2022/04/09 01:14:19;;;;;;;;;;;;;;;22.84;45.53;98554.16;20757753;27;97590;-76
2022/04/09 01:24:20;;;;;;;;;;;;;;;22.83;45.33;98528.78;20754628;27;98200;-75
2022/04/09 01:34:20;;;;;;;;;;;;;;;22.84;45.24;98522.50;20771500;27;97090;-74
2022/04/09 01:44:23;;;;;;;;;;;;;;;22.84;45.15;98564.72;20754387;27;98222;-74
2022/04/09 01:54:23;;;;;;;;;;;;;;;22.82;45.02;98576.44;20752276;27;97194;-76
2022/04/09 02:04:25;;;;;;;;;;;;;;;22.81;45.16;98543.13;20746922;27;97278;-76
2022/04/09 02:14:28;;;;;;;;;;;;;;;22.82;45.20;98527.13;20754178;27;107347;-74
2022/04/09 02:24:28;;;;;;;;;;;;;;;22.81;45.29;98556.34;20769256;27;97550;-75
2022/04/09 02:34:36;;;;;;;;;;;;;;;22.77;45.33;98533.94;20745711;27;96968;-75
2022/04/09 02:44:36;;;;;;;;;;;;;;;22.73;45.14;98573.03;20753713;27;97004;-75
2022/04/09 02:54:37;;;;;;;;;;;;;;;22.76;45.51;98587.72;20752672;27;97582;-75
2022/04/09 03:04:37;;;;;;;;;;;;;;;22.73;45.26;98580.97;20745924;27;97890;-75
2022/04/09 03:14:38;;;;;;;;;;;;;;;22.73;45.31;98596.78;20747610;27;98731;-75
2022/04/09 03:24:38;;;;;;;;;;;;;;;22.70;45.23;98590.03;20766084;27;97539;-75
2022/04/09 03:34:39;;;;;;;;;;;;;;;22.71;45.30;98617.25;20756442;27;97171;-74
2022/04/09 03:44:39;;;;;;;;;;;;;;;22.69;45.55;98603.38;20744101;27;96995;-76
2022/04/09 03:54:40;;;;;;;;;;;;;;;22.65;45.77;98615.28;20742223;27;100788;-76
2022/04/09 04:04:40;;;;;;;;;;;;;;;22.64;45.67;98611.84;20748869;27;97091;-75
2022/04/09 04:14:41;;;;;;;;;;;;;;;22.62;45.76;98600.63;20747496;27;97617;-75
2022/04/09 04:24:41;;;;;;;;;;;;;;;22.63;45.69;98585.59;20739747;27;97289;-74
2022/04/09 04:34:42;;;;;;;;;;;;;;;22.58;45.85;98569.47;20750431;27;96966;-75
2022/04/09 04:44:42;;;;;;;;;;;;;;;22.60;45.89;98559.59;20732133;27;98974;-74
2022/04/09 04:54:43;;;;;;;;;;;;;;;22.58;45.86;98541.28;20761075;27;96968;-75
2022/04/09 05:04:43;;;;;;;;;;;;;;;22.58;45.86;98514.91;20757058;27;97009;-76
2022/04/09 05:14:44;;;;;;;;;;;;;;;22.58;45.57;98433.13;20765058;27;101712;-73
2022/04/09 05:24:44;;;;;;;;;;;;;;;22.66;45.65;98430.44;20771289;27;97559;-74
2022/04/09 05:34:46;;;;;;;;;;;;;;;22.62;45.74;98449.44;20762951;27;97540;-76
2022/04/09 05:44:46;;;;;;;;;;;;;;;22.61;45.80;98448.63;20752457;27;98257;-75
2022/04/09 05:54:46;;;;;;;;;;;;;;;22.59;45.73;98484.09;20768078;27;96939;-76
2022/04/09 06:04:47;;;;;;;;;;;;;;;22.53;45.80;98477.69;20765484;27;97442;-75
2022/04/09 06:14:48;;;;;;;;;;;;;;;22.54;45.81;98511.81;20749706;27;99640;-74
2022/04/09 06:24:48;;;;;;;;;;;;;;;22.57;45.42;98488.72;20760109;27;96986;-76
2022/04/09 06:34:49;;;;;;;;;;;;;;;22.69;45.96;98467.03;20763211;27;98346;-74
2022/04/09 06:44:49;;;;;;;;;;;;;;;22.75;46.91;98483.16;20753439;27;97915;-75
2022/04/09 06:54:55;;;;;;;;;;;;;;;22.79;46.93;98495.84;20751203;27;97406;-75
2022/04/09 07:04:55;;;;;;;;;;;;;;;22.82;47.13;98490.19;20764803;27;97199;-76
2022/04/09 07:14:56;;;;;;;;;;;;;;;22.84;47.66;98477.66;20756835;27;97165;-75
2022/04/09 07:24:56;;;;;;;;;;;;;;;22.88;48.60;98508.97;20756062;27;98619;-74
2022/04/09 07:34:57;;;;;;;;;;;;;;;22.26;47.43;98695.97;20748809;27;97165;-75
2022/04/09 07:44:57;;;;;;;;;;;;;;;22.62;47.99;98721.13;20742757;27;97595;-74
2022/04/09 07:54:58;;;;;;;;;;;;;;;22.71;47.95;98717.50;20743372;27;97065;-74
2022/04/09 08:04:58;;;;;;;;;;;;;;;22.75;47.84;98692.41;20751513;27;97741;-75
2022/04/09 08:14:59;;;;;;;;;;;;;;;22.81;47.59;98701.47;20779499;27;97097;-75
2022/04/09 08:25:02;;;;;;;;;;;;;;;22.78;48.30;98707.91;20758834;27;97289;-74
2022/04/09 08:35:03;;;;;;;;;;;;;;;22.82;47.57;98721.59;20755951;27;96943;-75
2022/04/09 08:45:03;;;;;;;;;;;;;;;22.83;47.60;98737.25;20773014;27;97559;-74
2022/04/09 08:55:06;;;;;;;;;;;;;;;22.81;47.59;98728.69;20759636;27;100847;-73
2022/04/09 09:05:07;;;;;;;;;;;;;;;22.79;47.75;98746.50;20755761;27;97018;-75
2022/04/09 09:15:07;;;;;;;;;;;;;;;22.77;47.69;98755.59;20756747;27;97195;-75
2022/04/09 09:25:09;;;;;;;;;;;;;;;22.79;47.46;98762.34;20750035;27;97590;-74
2022/04/09 09:35:10;;;;;;;;;;;;;;;22.80;47.38;98766.63;20737715;27;99966;-75
2022/04/09 09:45:10;;;;;;;;;;;;;;;22.74;47.26;98793.69;20759706;27;98914;-75
2022/04/09 09:55:13;;;;;;;;;;;;;;;22.71;47.39;98860.78;20761181;27;97240;-75
2022/04/09 10:05:13;;;;;;;;;;;;;;;22.74;47.00;98893.13;20760663;27;97228;-76
2022/04/09 10:15:14;;;;;;;;;;;;;;;22.75;46.76;98914.06;20778979;27;96989;-74
2022/04/09 10:25:16;;;;;;;;;;;;;;;22.75;46.87;98913.25;20758984;27;98286;-75
2022/04/09 10:35:38;;;;;;;;;;;;;;;22.65;46.76;98908.94;20752905;27;97626;-76
2022/04/09 10:45:58;;;;;;;;;;;;;;;22.63;46.52;98937.31;20751810;27;97060;-75
2022/04/09 10:56:31;;;;;;;;;;;;;;;22.66;46.76;98968.66;20753083;27;98178;-74
2022/04/09 11:06:40;;;;;;;;;;;;;;;22.75;47.14;98976.56;20765815;27;98484;-75
2022/04/09 11:16:41;;;;;;;;;;;;;;;22.70;47.88;99000.81;20757685;27;99732;-75
2022/04/09 11:26:53;;;;;;;;;;;;;;;22.82;48.30;99064.66;20759813;27;96938;-76
2022/04/09 11:37:09;;;;;;;;;;;;;;;22.86;47.72;99077.38;20745614;27;97728;-76
2022/04/09 11:47:23;;;;;;;;;;;;;;;22.86;47.71;99103.78;20776270;27;97774;-75
2022/04/09 11:57:23;;;;;;;;;;;;;;;22.80;47.60;99111.50;20759062;27;96805;-75
2022/04/09 12:07:26;;;;;;;;;;;;;;;22.77;47.66;99128.47;20749948;27;96823;-75
2022/04/09 12:17:33;;;;;;;;;;;;;;;22.72;47.41;99149.25;20736195;27;97292;-77
2022/04/09 12:27:44;;;;;;;;;;;;;;;22.78;46.72;99182.09;20758335;27;97727;-78
2022/04/09 12:37:46;;;;;;;;;;;;;;;22.74;46.92;99180.75;20770961;27;97726;-81
2022/04/09 12:47:58;;;;;;;;;;;;;;;22.74;46.58;99154.34;20797806;27;96877;-79
2022/04/09 12:58:01;;;;;;;;;;;;;;;22.69;46.35;99136.34;20774949;27;97428;-81
2022/04/09 13:08:03;;;;;;;;;;;;;;;22.69;46.13;99155.66;20776269;27;98134;-79
2022/04/09 13:18:04;;;;;;;;;;;;;;;22.69;46.15;99152.19;20792041;27;101956;-79
2022/04/09 13:28:04;;;;;;;;;;;;;;;22.69;45.57;99191.78;20799053;27;96842;-77
2022/04/09 13:38:05;;;;;;;;;;;;;;;22.70;45.64;99193.44;20786222;27;97125;-79
2022/04/09 13:48:06;;;;;;;;;;;;;;;22.70;45.55;99240.94;20796292;27;101415;-80
2022/04/09 13:58:07;;;;;;;;;;;;;;;22.68;45.52;99248.19;20774962;27;97482;-80
2022/04/09 14:08:08;;;;;;;;;;;;;;;22.78;44.86;99237.53;20784286;27;99934;-80
2022/04/09 14:18:11;;;;;;;;;;;;;;;22.91;45.05;99229.16;20768719;27;97170;-79
2022/04/09 14:28:14;;;;;;;;;;;;;;;22.96;44.78;99192.53;20767711;27;102613;-79
2022/04/09 14:38:15;;;;;;;;;;;;;;;22.93;44.34;99228.00;20780960;27;98323;-79
2022/04/09 14:48:16;;;;;;;;;;;;;;;22.88;44.54;99287.56;20785820;27;97033;-81
2022/04/09 14:58:16;;;;;;;;;;;;;;;22.83;44.77;99299.38;20790914;27;97059;-82
2022/04/09 15:08:17;;;;;;;;;;;;;;;22.80;44.81;99305.00;20787950;27;98242;-79
2022/04/09 15:18:23;;;;;;;;;;;;;;;22.80;44.69;99314.72;20784160;27;97128;-80
2022/04/09 15:28:28;;;;;;;;;;;;;;;22.75;44.01;99317.00;20773996;27;101003;-81
2022/04/09 15:38:30;;;;;;;;;;;;;;;22.71;44.24;99334.94;20798912;27;96990;-81
2022/04/09 15:48:31;;;;;;;;;;;;;;;22.68;44.32;99344.00;20765545;27;97358;-80
2022/04/09 15:58:31;;;;;;;;;;;;;;;22.72;44.72;99360.34;20756562;27;98462;-80
2022/04/09 16:08:33;;;;;;;;;;;;;;;22.71;44.96;99393.00;20758386;27;99754;-78
2022/04/09 16:18:33;;;;;;;;;;;;;;;22.72;45.28;99421.06;20749114;27;97260;-78
2022/04/09 16:28:34;;;;;;;;;;;;;;;22.71;45.12;99437.88;20770630;27;96964;-77
2022/04/09 16:38:34;;;;;;;;;;;;;;;22.67;45.27;99461.09;20767940;27;96997;-78
2022/04/09 16:48:38;;;;;;;;;;;;;;;22.67;45.22;99453.16;20751627;27;97062;-76
2022/04/09 16:58:39;;;;;;;;;;;;;;;22.69;45.76;99468.84;20757233;27;99394;-75
2022/04/09 17:08:39;;;;;;;;;;;;;;;22.68;45.60;99472.47;20766901;27;96958;-74
2022/04/09 17:18:40;;;;;;;;;;;;;;;22.61;45.20;99485.44;20766216;27;97630;-76
2022/04/09 17:28:41;;;;;;;;;;;;;;;22.53;44.45;99474.78;20752444;27;97042;-76
2022/04/09 17:38:41;;;;;;;;;;;;;;;22.52;45.09;99505.63;20757569;27;98134;-76
2022/04/09 17:48:42;;;;;;;;;;;;;;;22.59;45.94;99531.41;20752978;27;99081;-75
2022/04/09 17:58:42;;;;;;;;;;;;;;;22.59;46.53;99561.25;20744605;27;97002;-76
2022/04/09 18:08:43;;;;;;;;;;;;;;;22.55;46.07;99563.38;20750032;27;96878;-76
2022/04/09 18:18:43;;;;;;;;;;;;;;;22.57;45.82;99594.91;20743230;27;100685;-77
2022/04/09 18:28:44;;;;;;;;;;;;;;;22.54;45.30;99611.00;20763297;27;97217;-78
2022/04/09 18:38:45;;;;;;;;;;;;;;;22.57;45.67;99597.53;20784257;27;97291;-79
2022/04/09 18:48:45;;;;;;;;;;;;;;;22.68;46.12;99625.53;20800998;27;96859;-81
2022/04/09 18:58:51;;;;;;;;;;;;;;;22.82;45.84;99637.41;20809333;27;96828;-79
2022/04/09 19:08:55;;;;;;;;;;;;;;;22.89;45.84;99654.31;20783000;27;101606;-78
2022/04/09 19:18:55;;;;;;;;;;;;;;;22.88;46.33;99667.66;20768243;27;97831;-78
2022/04/09 19:28:56;;;;;;;;;;;;;;;22.82;46.87;99677.00;20759790;27;96883;-77
2022/04/09 19:38:58;;;;;;;;;;;;;;;22.79;46.78;99672.00;20754240;27;97090;-79
2022/04/09 19:48:59;;;;;;;;;;;;;;;22.75;47.17;99673.28;20775753;27;96966;-78
2022/04/09 19:59:00;;;;;;;;;;;;;;;22.71;47.33;99680.66;20750158;27;97847;-78
2022/04/09 20:09:00;;;;;;;;;;;;;;;22.69;47.46;99672.03;20750312;27;97717;-77
2022/04/09 20:19:01;;;;;;;;;;;;;;;22.67;47.54;99692.47;20750017;27;98066;-78
2022/04/09 20:29:03;;;;;;;;;;;;;;;22.64;47.61;99700.69;20755609;27;97358;-78
2022/04/09 20:39:04;;;;;;;;;;;;;;;22.61;47.30;99661.41;20745679;27;100716;-78
2022/04/09 20:49:05;;;;;;;;;;;;;;;22.58;47.51;99659.03;20735618;27;98768;-77
2022/04/09 20:59:06;;;;;;;;;;;;;;;22.57;47.81;99668.78;20753753;27;97749;-78
2022/04/09 21:09:06;;;;;;;;;;;;;;;22.53;47.61;99673.50;20774994;27;97278;-78
2022/04/09 21:19:10;;;;;;;;;;;;;;;22.59;47.33;99718.75;20752150;27;96974;-79
2022/04/09 21:29:10;;;;;;;;;;;;;;;22.65;47.39;99702.34;20760582;27;99085;-77
2022/04/09 21:39:11;;;;;;;;;;;;;;;22.75;47.04;99723.41;20749432;27;100205;-77
2022/04/09 21:49:11;;;;;;;;;;;;;;;22.75;42.21;99721.59;20761218;27;100426;-79
2022/04/09 21:59:12;;;;;;;;;;;;;;;22.82;45.47;99714.75;20763855;27;98597;-77
2022/04/09 22:09:16;;;;;;;;;;;;;;;22.83;45.55;99689.22;20753381;27;97726;-78
2022/04/09 22:19:17;;;;;;;;;;;;;;;22.84;45.98;99681.13;20770839;27;97173;-78
2022/04/09 22:29:19;;;;;;;;;;;;;;;22.84;46.15;99683.78;20754745;27;97339;-78
2022/04/09 22:39:19;;;;;;;;;;;;;;;22.88;46.14;99699.34;20753758;27;97290;-77
2022/04/09 22:49:19;;;;;;;;;;;;;;;22.94;46.17;99733.88;20743253;27;98037;-80
2022/04/09 22:59:21;;;;;;;;;;;;;;;22.94;46.12;99739.16;20747373;27;98722;-78
2022/04/09 23:09:21;;;;;;;;;;;;;;;22.85;46.41;99738.25;20747812;27;97972;-77
2022/04/09 23:19:22;;;;;;;;;;;;;;;22.76;46.93;99741.75;20754590;27;97282;-78
2022/04/09 23:29:22;;;;;;;;;;;;;;;22.68;46.97;99742.47;20745494;27;100160;-77
2022/04/09 23:39:23;;;;;;;;;;;;;;;22.66;46.73;99740.97;20728924;27;99849;-77
2022/04/09 23:49:23;;;;;;;;;;;;;;;22.62;46.68;99731.66;20729198;27;97906;-77
2022/04/09 23:59:24;;;;;;;;;;;;;;;22.59;46.75;99740.69;20753554;27;99341;-79
